Liste des engagé(e)s
Classement
PDF
   
         
   
 
Pos N° Nom Prénom Pays Temps Ecart Pl. Cat. Pl. Sexe Club Diplome
1 1 CHAHDI Hassan 00:23:58 1 SE 1 M S/L AL VOIRON
2 358 KEMOI Daniel 00:24:27 29 2 SE 2 M ANNECY HAUTE SAVOIE A. *
3 355 SAINJON Manuel 00:24:47 49 3 SE 3 M ENTENTE ATHLETIQUE GRENOBLE 38
4 356 BOUTRIA Hocine 00:25:01 01:03 4 SE 4 M S/L AL VOIRON
5 354 MERCURI Quentin 00:25:08 01:10 5 SE 5 M S/L AL VOIRON
6 357 HEASLIP Olivier 00:25:13 01:15 1 ES 6 M S/L AL VOIRON
7 293 FACY Florent 00:25:16 01:18 6 SE 7 M CA PONTCHARRA LA ROCHETTE GRES
8 689 TAPIE Emmanuel 00:25:19 01:21 7 SE 8 M S/L AL VOIRON
9 353 CALANDREAU Julien 00:25:21 01:23 8 SE 9 M S/L AL VOIRON
10 564 MALLEBAY Nicolas 00:25:50 01:52 9 SE 10 M S/L AL ECHIROLLES
11 779 GIGANTE LAURENT 00:26:09 02:11 1 V1 11 M ENTENTE ATHLETIQUE GRENOBLE 38
12 766 KIDAY ABDOU 00:26:17 02:19 10 SE 12 M
13 733 DERCOURT Yoan 00:26:20 02:22 11 SE 13 M S/L AL VOIRON
14 277 DELORME Jerome 00:26:35 02:37 12 SE 14 M ENTENTE ATHLETIQUE GRENOBLE 38
15 533 PION Julien 00:26:38 02:40 13 SE 15 M
16 575 JANVIER Antoine 00:26:52 02:54 2 ES 16 M S/L AL VOIRON
17 390 DI DOMIZIO Gabriel 00:27:00 03:02 14 SE 17 M
18 133 MORICHAUD Gwenaël 00:27:03 03:05 2 V1 18 M ASVEL VILLEURBANNE*
19 192 MICOUD Thibaut 00:27:05 03:07 3 ES 19 M
20 405 RABILLOUD Stéphane 00:27:06 03:08 3 V1 20 M EA CHAMBERY
21 78 MONNET Yannick 00:27:13 03:15 4 V1 21 M COUREURS DU MONDE EN ISERE*
22 273 DESAINTJEAN Florian 00:27:16 03:18 15 SE 22 M S/L ASPTT GRENOBLE
23 776 ZABALA MIGUEL 00:27:18 03:20 16 SE 23 M
24 404 GAILHOT Jonathan 00:27:23 03:25 17 SE 24 M
25 666 BLONDEAU Yann 00:27:37 03:39 18 SE 25 M
26 696 CONSTANTIN Frédéric 00:27:45 03:47 19 SE 26 M S/L AL VOIRON
27 306 DE SOUSA Mathieu 00:28:08 04:10 4 ES 27 M S/L AL VOIRON
28 682 PIANARO Rémi 00:28:22 04:24 20 SE 28 M S/L AL ECHIROLLES
29 201 JULLIEN James 00:28:23 04:25 1 V2 29 M S/L ASPTT GRENOBLE
30 805 BERARDI Christophe 00:28:24 04:26 5 V1 30 M AL SAINT-MARCELLIN
31 637 DEGIOVANNI Jacques 00:28:43 04:45 6 V1 31 M S/L AL VOIRON
32 362 LEMAY Virginie 00:28:47 04:49 1 SE 1 F ATHLE ST JULIEN 74
33 727 MOUNIER Pierre jean 00:28:50 04:52 21 SE 32 M
34 773 PONCHON FREDDY 00:28:50 04:52 7 V1 33 M
35 615 GOMEZ Michel 00:28:51 04:53 8 V1 34 M
36 543 STAS DE RICHELLE Loïc 00:28:58 05:00 22 SE 35 M
37 522 ARNOULD Laura 00:29:00 05:02 2 SE 2 F ENTENTE ATHLETIQUE GRENOBLE 38
38 765 BENELMAADADI SABRI 00:29:03 05:05 23 SE 36 M
39 632 JEPKOECH MUTAI Nelly 00:29:06 05:08 3 SE 3 F S/L CAMN VILLEURBANNE
40 402 LACHAUD Ludovic 00:29:13 05:15 5 ES 37 M ENTENTE ATHLETIQUE GRENOBLE 38
41 118 GUNTZ Arthur 00:29:14 05:16 24 SE 38 M S/L AL ECHIROLLES
42 618 SOLITAIRE Alexandre 00:29:20 05:22 25 SE 39 M S/L AL VOIRON
43 541 CAUSSE Grégoire 00:29:23 05:25 6 ES 40 M
44 472 EMERY Loan 00:29:30 05:32 1 CA 41 M
45 108 GAUTHIER Thomas 00:29:36 05:38 9 V1 42 M
46 275 SORIANO Olivier 00:29:37 05:39 10 V1 43 M
47 581 WANDELS Noel 00:29:40 05:42 11 V1 44 M
48 476 AUNE Arnaud 00:29:42 05:44 12 V1 45 M
49 374 MENOUX Nicolas 00:29:45 05:47 13 V1 46 M COUREURS DU MONDE EN ISERE*
50 171 MARTIN-GARIN Leo 00:29:55 05:57 2 CA 47 M
51 698 LANGLOIS Cedric 00:29:56 05:58 26 SE 48 M
52 700 GUINAND Bruno 00:29:59 06:01 14 V1 49 M S/L ASPTT GRENOBLE
53 706 DECARD Frederic 00:30:00 06:02 15 V1 50 M
54 613 DESIT Stephane 00:30:03 06:05 2 V2 51 M
55 305 CHARRASSE Patrick 00:30:08 06:10 16 V1 52 M
56 249 BECQUE Florent 00:30:14 06:16 27 SE 53 M AL SAINT-MARCELLIN
57 542 DI SPERANDIO Romain 00:30:17 06:19 28 SE 54 M
58 754 DERRIEN FRANCK 00:30:25 06:27 29 SE 55 M US SAINT-EGREVE
59 251 SAAD Michel 00:30:32 06:34 3 V2 56 M
60 521 LEMERLE Christophe 00:30:38 06:40 30 SE 57 M COQUELICOT 42*
61 485 BRAYMAND Romain 00:30:39 06:41 1 JU 58 M
62 570 BRAYMAND Yann 00:30:39 06:41 31 SE 59 M
63 43 CHAVASSE-FRETTE Gael 00:30:39 06:41 32 SE 60 M
64 119 TRAMOND Guillaume 00:30:42 06:44 33 SE 61 M COUREURS DU MONDE EN ISERE*
65 577 REICHENBACH Leo 00:30:44 06:46 3 CA 62 M
66 123 GALLON Eddy 00:30:46 06:48 34 SE 63 M
67 481 CHARTIER Franck 00:30:47 06:49 17 V1 64 M COUREURS DU MONDE EN ISERE*
68 711 PERIER Nathan 00:30:53 06:55 7 ES 65 M
69 54 BARRAULT Valentin 00:30:58 07:00 35 SE 66 M
70 653 CHOJNACKI Audrey 00:31:01 07:03 4 SE 4 F
71 459 JAUCOURT Olivier 00:31:01 07:03 36 SE 67 M
72 578 NOYER Juliette 00:31:07 07:09 1 JU 5 F EA CHAMBERY
73 77 BARROT Eddy 00:31:20 07:22 37 SE 68 M
74 601 BEGON Vivien 00:31:22 07:24 38 SE 69 M
75 634 MAIRY Mickael 00:31:29 07:31 39 SE 70 M S/L AL ECHIROLLES
76 801 SANTOS-COTTIN Franck 00:31:37 07:39 4 V2 71 M COUREURS DU MONDE EN ISERE*
77 333 DUFRENEY Fabien 00:31:40 07:42 18 V1 72 M COUREURS DU MONDE EN ISERE*
78 165 VALENTIN Stephane 00:31:42 07:44 19 V1 73 M COUREURS DU MONDE EN ISERE*
79 149 CANAS Bastien 00:31:49 07:51 40 SE 74 M
80 350 COURTOIS Richard 00:31:52 07:54 41 SE 75 M
81 168 GHEZAL Rémi 00:31:53 07:55 1 V3 76 M COUREURS DU MONDE EN ISERE*
82 683 JULIEN SAINT AMAND Mathieu 00:31:57 07:59 20 V1 77 M
83 762 LABOURE SYLVAIN 00:31:59 08:01 21 V1 78 M
84 412 QUESTIER Thierry 00:32:01 08:03 5 V2 79 M
85 655 ALAPETITE Julien 00:32:03 08:05 22 V1 80 M
86 174 MOLHO Frédéric 00:32:05 08:07 42 SE 81 M COUREURS DU MONDE EN ISERE*
87 42 BRÉMARD Fabien 00:32:09 08:11 43 SE 82 M
88 584 LE GAL REDON Patrick 00:32:12 08:14 23 V1 83 M
89 579 WATERREUS Ladislas 00:32:17 08:19 44 SE 84 M
90 547 PARMENTELAT Alizée 00:32:18 08:20 5 SE 6 F
91 685 DIEPPEDALE Marc 00:32:31 08:33 24 V1 85 M
92 548 SERRE Florian 00:32:33 08:35 45 SE 86 M
93 657 NAUDIN Alexandre 00:32:34 08:36 25 V1 87 M
94 707 BONNARDON Romain 00:32:36 08:38 4 CA 88 M S/L EA RIVES
95 241 JANY Mattéo 00:32:36 08:38 5 CA 89 M
96 519 DEWULF Guillaume 00:32:37 08:39 8 ES 90 M
97 781 VILLE Geoffroy 00:32:43 08:45 46 SE 91 M S/L GRENOBLE UC
98 782 TOSTI Anthony 00:32:45 08:47 47 SE 92 M S/L GRENOBLE UC
99 130 TURC Jean christophe 00:32:46 08:48 26 V1 93 M URIAGE RUNNING
100 643 PELLIER Alexis 00:32:47 08:49 48 SE 94 M
101 800 CARON CHRISTIAN 00:32:50 08:52 27 V1 95 M
102 783 GIGANTE MARINE 00:32:51 08:53 6 SE 7 F
103 599 VERMEIL Franck 00:32:52 08:54 6 V2 96 M
104 486 BRAYMAND Thibaut 00:32:56 08:58 2 JU 97 M
105 150 BOUILLOUD Jerome 00:32:58 09:00 28 V1 98 M COUREURS DU MONDE EN ISERE*
106 148 PICARD Thibaud 00:32:58 09:00 29 V1 99 M
107 227 ISERN Benjamin 00:33:01 09:03 6 CA 100 M
108 588 GANTEILLE Nicolas 00:33:04 09:06 49 SE 101 M
109 604 CHENEVEZ James 00:33:07 09:09 7 V2 102 M S/L GRENOBLE UC
110 348 PABION Nicolas 00:33:10 09:12 50 SE 103 M
111 345 BETRAOUI Jean pierre 00:33:11 09:13 30 V1 104 M
112 515 MELIX Jeremy 00:33:11 09:13 51 SE 105 M
113 713 LEPAGNOL Philippe 00:33:12 09:14 8 V2 106 M
114 603 DUMAS Pauline 00:33:16 09:18 7 SE 8 F S/L GRENOBLE UC
115 664 BARTHELEMY Cloé 00:33:23 09:25 8 SE 9 F
116 411 BELRHALI Nathan 00:33:24 09:26 7 CA 107 M US SAINT-EGREVE
117 310 CHOVET Nathan 00:33:24 09:26 52 SE 108 M
118 307 CATALDI Christophe 00:33:34 09:36 9 V2 109 M S/L ASPTT GRENOBLE
119 184 MOYET Christophe 00:33:35 09:37 10 V2 110 M COUREURS DU MONDE EN ISERE*
120 176 PORTIER Thibaut 00:33:35 09:37 31 V1 111 M
121 641 DEBONO Christian 00:33:40 09:42 2 V3 112 M COUREURS DU MONDE EN ISERE*
122 645 SKOPINSKI Mathieu 00:33:46 09:48 53 SE 113 M
123 158 VEYET Florian 00:33:46 09:48 54 SE 114 M
124 294 RICHARD Laurent 00:33:48 09:50 11 V2 115 M
125 610 REBEL Laurent 00:33:50 09:52 12 V2 116 M
126 729 BAFFERT Romain 00:33:53 09:55 32 V1 117 M
127 442 PELLISSIER Rémi 00:33:58 10:00 33 V1 118 M
128 338 TOSTAIN Philippe 00:34:01 10:03 8 CA 119 M
129 419 MALÉ Théophile 00:34:03 10:05 9 CA 120 M
130 276 BLANCHOIN Laurent 00:34:04 10:06 13 V2 121 M
131 652 PERENON Renaud 00:34:05 10:07 34 V1 122 M
132 238 BELZ Gilles 00:34:06 10:08 35 V1 123 M
133 663 VANNIER Christophe 00:34:08 10:10 36 V1 124 M
134 573 JOURDAIN Clément 00:34:10 10:12 9 ES 125 M
135 200 PROIA Daniel 00:34:13 10:15 14 V2 126 M
136 435 HAGE Titouan 00:34:16 10:18 10 CA 127 M
137 315 HACQUIN Antoine 00:34:17 10:19 15 V2 128 M
138 18 PERRIN CAILLE David 00:34:20 10:22 55 SE 129 M S/L AL VOIRON
139 752 LE CLERE ROMAIN 00:34:24 10:26 56 SE 130 M S/L AL VOIRON
140 7 PELLICIER Romain 00:34:25 10:27 57 SE 131 M
141 495 POYET Mathieu 00:34:26 10:28 58 SE 132 M
142 722 EPAILLY Romain 00:34:28 10:30 59 SE 133 M
143 457 GRANDAMAS Antoine 00:34:30 10:32 10 ES 134 M
144 170 MARTIN-GARIN Celie 00:34:34 10:36 2 JU 10 F
145 674 LANGLOIS Eric 00:34:37 10:39 60 SE 135 M
146 517 JOUMARD Isabelle 00:34:39 10:41 1 V1 11 F
147 725 LORRET David 00:34:40 10:42 37 V1 136 M
148 647 PAUTONNIER Valentin 00:34:40 10:42 61 SE 137 M
149 29 SAUVAN Nicolas 00:34:42 10:44 38 V1 138 M S/L AL VOIRON
150 129 RICHARD Nicolas 00:34:44 10:46 62 SE 139 M
151 330 OLIVIER Pascal 00:34:45 10:47 16 V2 140 M
152 785 ELBEY SORAYA 00:34:53 10:55 9 SE 12 F
153 388 PATIGNY Mickael 00:34:54 10:56 39 V1 141 M
154 730 GIRKA Stéphane 00:34:57 10:59 17 V2 142 M
155 417 PELLET Frédéric 00:34:57 10:59 40 V1 143 M GRESI' COURANT LE VERSOUD
156 440 LECHEVALLIER Loic 00:34:58 11:00 63 SE 144 M
157 50 DERIAT Christophe 00:35:00 11:02 41 V1 145 M
158 642 EGGER Anne-marie 00:35:02 11:04 2 V1 13 F
159 326 GENEREUX Isabelle 00:35:02 11:04 1 V2 14 F COUREURS DU MONDE EN ISERE*
160 12 TRINQUESSE Sylvain 00:35:02 11:04 64 SE 146 M
161 764 MARSELLI FABRICE 00:35:03 11:05 65 SE 147 M
162 45 TALOURD Tony 00:35:04 11:06 66 SE 148 M
163 692 GENSE Samuel 00:35:05 11:07 42 V1 149 M
164 363 VINARD Alain 00:35:06 11:08 43 V1 150 M
165 423 PONCET Raphael 00:35:07 11:09 67 SE 151 M
166 755 SAGE Alexendre 00:35:08 11:10 11 CA 152 M
167 619 CHASSIGNEU Hugues 00:35:09 11:11 68 SE 153 M S/L EA GILLONNAY-LA COTE
168 226 DELAYE Lukas 00:35:10 11:12 12 CA 154 M
169 181 GRAIL Stéphane 00:35:15 11:17 44 V1 155 M
170 337 ALLEX Kévin 00:35:17 11:19 69 SE 156 M COUREURS DU MONDE EN ISERE*
171 5 BOISSIEUX Didier 00:35:21 11:23 45 V1 157 M
172 35 GERVASONI Julien 00:35:24 11:26 70 SE 158 M
173 135 KNOCHEL Hervé 00:35:24 11:26 46 V1 159 M
174 445 LALO Aurélien 00:35:37 11:39 71 SE 160 M
175 115 FERRIOL Frederic 00:35:39 11:41 47 V1 161 M
176 439 ITIER Michel 00:35:44 11:46 18 V2 162 M
177 154 GEORJON Gaspard 00:35:46 11:48 13 CA 163 M
178 616 FUGA-DIBILIO Marie-christine 00:35:49 11:51 2 V2 15 F
179 608 DURLIN Sébastien 00:35:50 11:52 48 V1 164 M
180 490 GEORGE Christopher 00:35:54 11:56 72 SE 165 M
181 282 COUDON Benoit 00:35:58 12:00 73 SE 166 M
182 709 KELLER Guillaume 00:36:02 12:04 49 V1 167 M
183 406 SCHLOSSER